Terminal Aerodrome Forecast
Issued by NWS Wilmington, OH

Current Version | Previous Version | Graphics & Text | Print | Product List | Glossary On
Versions: 1 2 3 4 5 6 7 8 9 10 11 12 13 14 15 16 17 18 19 20 21 22 23 24 25 26 27 28 29 30 31 32
000
FTUS41 KILN 290300 AAA
TAFCVG
TAF AMD
KCVG 290351Z 2904/3006 14011KT P6SM FEW200 OVC250
     FM291000 17010KT P6SM VCSH BKN060 OVC120
     FM291300 19013G20KT P6SM -RA SCT025 OVC040
     FM291500 21013G21KT 4SM -RA BR SCT010 OVC020
     FM291900 27015G25KT P6SM VCSH OVC025
     FM300100 30012KT P6SM VCSH OVC025=

USA.gov is the U.S. government's official web portal to all federal, state and local government web resources and services.